Time;durP1;ratioP1;P1;durP2;ratioP2;P2;SDS_P1;SDS_P2;PMS_P1;PMS_P2;Temp;Humidity;BMP_temperature;BMP_pressure;BME280_temperature;BME280_humidity;BME280_pressure;Samples;Min_cycle;Max_cycle;Signal;HPM_P1;HPM_P2
2022/12/06 00:00:44;;;;;;;14.25;9.57;;;;;;;;;;4416041;32;67624;-64
2022/12/06 00:03:31;;;;;;;16.20;10.32;;;;;;;;;;4404873;32;59488;-64
2022/12/06 00:06:20;;;;;;;16.00;10.50;;;;;;;;;;4400718;32;71090;-64
2022/12/06 00:09:07;;;;;;;16.08;9.50;;;;;;;;;;4413160;32;68315;-64
2022/12/06 00:11:53;;;;;;;;;;;;;;;;;;4403302;32;67552;-63
2022/12/06 00:14:40;;;;;;;19.08;9.88;;;;;;;;;;4407719;32;72164;-64
2022/12/06 00:17:27;;;;;;;15.25;9.43;;;;;;;;;;4390731;32;63781;-64
2022/12/06 00:20:13;;;;;;;16.30;8.93;;;;;;;;;;4399720;32;68636;-64
2022/12/06 00:23:00;;;;;;;15.48;9.32;;;;;;;;;;4386153;32;68211;-63
2022/12/06 00:25:46;;;;;;;15.88;9.70;;;;;;;;;;4383258;32;72143;-65
2022/12/06 00:28:34;;;;;;;14.45;9.70;;;;;;;;;;4383135;32;66194;-63
2022/12/06 00:31:22;;;;;;;15.52;9.30;;;;;;;;;;4382895;32;68355;-63
2022/12/06 00:34:09;;;;;;;16.62;9.55;;;;;;;;;;4383036;32;60767;-63
2022/12/06 00:36:56;;;;;;;17.52;10.63;;;;;;;;;;4382866;32;70957;-64
2022/12/06 00:39:42;;;;;;;18.40;11.40;;;;;;;;;;4379707;32;69358;-64
2022/12/06 00:42:29;;;;;;;18.55;11.68;;;;;;;;;;4383644;32;67588;-64
2022/12/06 00:45:16;;;;;;;24.95;15.57;;;;;;;;;;4385053;32;59421;-64
2022/12/06 00:48:03;;;;;;;24.98;14.35;;;;;;;;;;4371845;32;70412;-63
2022/12/06 00:50:50;;;;;;;25.00;14.35;;;;;;;;;;4384625;32;69400;-63
2022/12/06 00:53:36;;;;;;;28.15;16.52;;;;;;;;;;4372279;32;68260;-65
2022/12/06 00:56:22;;;;;;;25.45;14.43;;;;;;;;;;4372625;32;71567;-64
2022/12/06 00:59:10;;;;;;;24.30;14.95;;;;;;;;;;4383541;32;64839;-63
2022/12/06 01:01:56;;;;;;;;;;;;;;;;;;4373341;32;66641;-64
2022/12/06 01:04:43;;;;;;;22.83;14.38;;;;;;;;;;4385072;32;58940;-63
2022/12/06 01:07:29;;;;;;;20.83;11.65;;;;;;;;;;4383196;32;70705;-64
2022/12/06 01:10:16;;;;;;;25.17;12.52;;;;;;;;;;4383171;32;65899;-64
2022/12/06 01:13:03;;;;;;;21.50;12.07;;;;;;;;;;4383085;32;67453;-65
2022/12/06 01:15:50;;;;;;;19.20;11.43;;;;;;;;;;4383565;32;60423;-63
2022/12/06 01:18:37;;;;;;;21.52;11.95;;;;;;;;;;4372395;32;70370;-64
2022/12/06 01:21:24;;;;;;;20.00;11.77;;;;;;;;;;4384179;32;69258;-64
2022/12/06 01:24:11;;;;;;;19.25;11.63;;;;;;;;;;4372476;32;67549;-63
2022/12/06 01:26:57;;;;;;;18.15;10.48;;;;;;;;;;4382425;32;71350;-63
2022/12/06 01:29:44;;;;;;;21.37;11.73;;;;;;;;;;4382079;32;66905;-64
2022/12/06 01:32:31;;;;;;;22.60;11.93;;;;;;;;;;4361108;32;67793;-63
2022/12/06 01:35:17;;;;;;;18.73;11.45;;;;;;;;;;4360734;32;68623;-64
2022/12/06 01:38:04;;;;;;;19.58;11.93;;;;;;;;;;4371982;32;71575;-63
2022/12/06 01:40:51;;;;;;;21.77;13.02;;;;;;;;;;4371508;32;65758;-63
2022/12/06 01:43:40;;;;;;;20.50;11.80;;;;;;;;;;4371716;32;68131;-63
2022/12/06 01:46:41;;;;;;;22.48;12.35;;;;;;;;;;4382869;32;59219;-64
2022/12/06 01:49:33;;;;;;;22.20;12.57;;;;;;;;;;4361280;32;70589;-63
2022/12/06 01:52:22;;;;;;;19.27;11.25;;;;;;;;;;4370656;32;69303;-64
2022/12/06 01:55:10;;;;;;;20.65;11.82;;;;;;;;;;4382565;32;67679;-63
2022/12/06 01:58:04;;;;;;;21.98;14.07;;;;;;;;;;4372099;32;60417;-64
2022/12/06 02:00:51;;;;;;;23.02;13.30;;;;;;;;;;4360606;32;71321;-63
2022/12/06 02:03:37;;;;;;;21.92;13.35;;;;;;;;;;4382694;32;69217;-64
2022/12/06 02:06:24;;;;;;;24.23;14.63;;;;;;;;;;4371959;32;66596;-63
2022/12/06 02:09:11;;;;;;;25.83;14.27;;;;;;;;;;4359977;32;72341;-64
2022/12/06 02:11:58;;;;;;;26.67;13.15;;;;;;;;;;4371655;32;66259;-64
2022/12/06 02:14:49;;;;;;;21.83;13.20;;;;;;;;;;4383655;32;67213;-63
2022/12/06 02:17:45;;;;;;;18.48;12.00;;;;;;;;;;4371939;32;60151;-63
2022/12/06 02:20:44;;;;;;;24.48;12.88;;;;;;;;;;4371392;32;69780;-64
2022/12/06 02:23:56;;;;;;;23.62;13.77;;;;;;;;;;4361248;32;66078;-63
2022/12/06 02:26:44;;;;;;;23.38;12.98;;;;;;;;;;4382171;32;67585;-64
2022/12/06 02:30:07;;;;;;;26.87;15.20;;;;;;;;;;4360127;32;61040;-63
2022/12/06 02:33:08;;;;;;;25.27;16.23;;;;;;;;;;4370769;32;71249;-63
2022/12/06 02:36:03;;;;;;;29.80;19.55;;;;;;;;;;4382096;32;69373;-63
2022/12/06 02:39:04;;;;;;;27.17;17.27;;;;;;;;;;4382302;32;67623;-64
2022/12/06 02:42:00;;;;;;;24.10;14.90;;;;;;;;;;4370852;32;72175;-64
2022/12/06 02:44:50;;;;;;;26.17;13.75;;;;;;;;;;4383597;32;65940;-65
2022/12/06 02:47:37;;;;;;;23.27;13.70;;;;;;;;;;4374250;32;67396;-65
2022/12/06 02:50:21;;;;;;;20.85;13.20;;;;;;;;;;3849510;37;43011;-64
2022/12/06 02:53:12;;;;;;;20.70;11.73;;;;;;;;;;4412224;32;60377;-63
2022/12/06 02:55:59;;;;;;;21.75;12.27;;;;;;;;;;4393576;32;70621;-63
2022/12/06 02:58:47;;;;;;;19.67;12.05;;;;;;;;;;4411776;32;68314;-65
2022/12/06 03:01:37;;;;;;;19.23;12.20;;;;;;;;;;4411562;32;67474;-63
2022/12/06 03:05:06;;;;;;;22.45;15.68;;;;;;;;;;4387592;32;71535;-63
2022/12/06 03:07:53;;;;;;;21.35;14.85;;;;;;;;;;4397968;32;66929;-65
2022/12/06 03:10:51;;;;;;;24.00;15.50;;;;;;;;;;4398569;32;67503;-64
2022/12/06 03:14:01;;;;;;;26.27;15.10;;;;;;;;;;4384665;32;60171;-63
2022/12/06 03:16:49;;;;;;;25.37;18.05;;;;;;;;;;4395401;32;71292;-63
2022/12/06 03:19:37;;;;;;;31.50;19.17;;;;;;;;;;4382919;32;65858;-64
2022/12/06 03:22:40;;;;;;;29.70;20.08;;;;;;;;;;4394118;32;66858;-65
2022/12/06 03:25:27;;;;;;;26.58;17.50;;;;;;;;;;4395521;32;60561;-63
2022/12/06 03:28:15;;;;;;;27.20;16.08;;;;;;;;;;4393860;32;69900;-63
2022/12/06 03:31:08;;;;;;;28.83;16.40;;;;;;;;;;4383361;32;69440;-64
2022/12/06 03:34:01;;;;;;;26.45;14.35;;;;;;;;;;4382862;32;68118;-63
2022/12/06 03:36:50;;;;;;;24.20;13.15;;;;;;;;;;4393779;32;71861;-64
2022/12/06 03:39:42;;;;;;;22.13;12.63;;;;;;;;;;4383085;32;65679;-63
2022/12/06 03:42:29;;;;;;;22.90;13.23;;;;;;;;;;4393816;32;68252;-64
2022/12/06 03:45:16;;;;;;;22.85;12.63;;;;;;;;;;4371854;32;68240;-64
2022/12/06 03:48:14;;;;;;;21.15;13.10;;;;;;;;;;4371061;32;71909;-66
2022/12/06 03:51:05;;;;;;;21.35;13.38;;;;;;;;;;4383171;32;64894;-63
2022/12/06 03:53:53;;;;;;;24.95;13.60;;;;;;;;;;4393926;32;67548;-64
2022/12/06 03:56:40;;;;;;;22.70;13.65;;;;;;;;;;4395194;32;60048;-63
2022/12/06 03:59:27;;;;;;;20.48;12.27;;;;;;;;;;4382107;32;70937;-64
2022/12/06 04:02:13;;;;;;;19.50;11.40;;;;;;;;;;4372429;32;69786;-63
2022/12/06 04:05:00;;;;;;;16.58;10.95;;;;;;;;;;4384677;32;67898;-64
2022/12/06 04:07:47;;;;;;;19.42;12.32;;;;;;;;;;4373097;32;59258;-64
2022/12/06 04:10:33;;;;;;;18.83;11.65;;;;;;;;;;4383499;32;70605;-63
2022/12/06 04:13:20;;;;;;;17.35;11.60;;;;;;;;;;4372075;32;68985;-65
2022/12/06 04:18:09;;;;;;;18.95;11.32;;;;;;;;;;4383304;32;67742;-64
2022/12/06 04:19:13;;;;;;;17.10;11.13;;;;;;;;;;4383094;32;71609;-64
2022/12/06 04:25:05;;;;;;;21.92;12.07;;;;;;;;;;4374568;32;66699;-63
2022/12/06 04:40:14;;;;;;;20.77;11.85;;;;;;;;;;4363195;32;57600;-64
2022/12/06 04:46:06;;;;;;;18.67;11.32;;;;;;;;;;4384293;32;69373;-64
2022/12/06 04:48:52;;;;;;;19.92;10.60;;;;;;;;;;4382506;32;67997;-65
2022/12/06 04:51:39;;;;;;;16.15;10.27;;;;;;;;;;4383896;32;70837;-65
2022/12/06 04:54:25;;;;;;;16.83;10.88;;;;;;;;;;4372490;32;65551;-64
2022/12/06 04:57:13;;;;;;;16.23;10.55;;;;;;;;;;4372458;32;66668;-64
2022/12/06 05:00:00;;;;;;;16.52;10.40;;;;;;;;;;4372386;32;67836;-63
2022/12/06 05:02:47;;;;;;;16.42;9.18;;;;;;;;;;4372093;32;71737;-65
2022/12/06 05:05:34;;;;;;;20.17;11.05;;;;;;;;;;4371599;32;66432;-63
2022/12/06 05:08:20;;;;;;;22.55;13.52;;;;;;;;;;4371950;32;66334;-64
2022/12/06 05:11:07;;;;;;;22.83;14.40;;;;;;;;;;4372206;32;59569;-64
2022/12/06 05:13:54;;;;;;;21.15;13.15;;;;;;;;;;4383590;32;70665;-65
2022/12/06 05:16:40;;;;;;;20.80;14.02;;;;;;;;;;4383847;32;69319;-63
2022/12/06 05:19:27;;;;;;;;;;;;;;;;;;4383005;32;66697;-64
2022/12/06 05:22:13;;;;;;;21.08;12.25;;;;;;;;;;4361938;32;59436;-63
2022/12/06 05:25:00;;;;;;;18.58;12.85;;;;;;;;;;4386480;32;69743;-65
2022/12/06 05:30:30;;;;;;;24.37;13.62;;;;;;;;;;3850299;37;43928;-65
2022/12/06 05:33:17;;;;;;;21.73;11.40;;;;;;;;;;4412995;32;60208;-65
2022/12/06 05:36:12;;;;;;;19.40;12.05;;;;;;;;;;4388262;32;69164;-65
2022/12/06 05:38:59;;;;;;;21.25;13.20;;;;;;;;;;4398540;32;68995;-65
2022/12/06 05:41:45;;;;;;;20.20;11.98;;;;;;;;;;4410907;32;67853;-65
2022/12/06 05:44:32;;;;;;;22.10;12.68;;;;;;;;;;4409891;32;71683;-65
2022/12/06 05:47:19;;;;;;;22.17;13.35;;;;;;;;;;4409765;32;65942;-64
2022/12/06 05:50:07;;;;;;;22.25;14.25;;;;;;;;;;4398885;32;66256;-64
2022/12/06 05:52:54;;;;;;;22.73;13.90;;;;;;;;;;4399042;32;59440;-62
2022/12/06 05:55:41;;;;;;;1.55;1.30;;;;;;;;;;4397843;32;72304;-64
2022/12/06 05:58:28;;;;;;;7.40;4.00;;;;;;;;;;4398217;32;67300;-64
2022/12/06 06:01:15;;;;;;;26.20;14.20;;;;;;;;;;4411009;32;66582;-63
2022/12/06 06:04:02;;;;;;;;;;;;;;;;;;4409873;32;59233;-65
2022/12/06 06:06:48;;;;;;;1.52;0.98;;;;;;;;;;4409270;32;69662;-63
2022/12/06 06:09:34;;;;;;;3.60;2.20;;;;;;;;;;4376707;32;69969;-63
2022/12/06 06:12:21;;;;;;;22.17;12.65;;;;;;;;;;4409458;32;67549;-62
2022/12/06 06:15:08;;;;;;;21.17;12.05;;;;;;;;;;4396396;32;70419;-64
2022/12/06 06:17:55;;;;;;;24.10;14.15;;;;;;;;;;4383566;32;64832;-63
2022/12/06 06:20:41;;;;;;;20.27;11.85;;;;;;;;;;4383031;32;68525;-65
2022/12/06 06:23:28;;;;;;;20.10;12.52;;;;;;;;;;4394903;32;67852;-64
2022/12/06 06:26:15;;;;;;;24.37;13.85;;;;;;;;;;4392937;32;72813;-64
2022/12/06 06:29:02;;;;;;;;;;;;;;;;;;4394880;32;65853;-64
2022/12/06 06:31:48;;;;;;;33.75;18.90;;;;;;;;;;4371940;32;68761;-63
2022/12/06 06:34:35;;;;;;;29.50;17.90;;;;;;;;;;4393910;32;59367;-64
2022/12/06 06:37:21;;;;;;;36.70;19.77;;;;;;;;;;4393596;32;70611;-64
2022/12/06 06:40:10;;;;;;;31.02;18.10;;;;;;;;;;4379007;32;69135;-64
2022/12/06 06:42:57;;;;;;;38.22;19.70;;;;;;;;;;4383432;32;66899;-63
2022/12/06 06:45:53;;;;;;;;;;;;;;;;;;4385306;32;59164;-63
2022/12/06 06:48:40;;;;;;;40.80;18.70;;;;;;;;;;4372217;32;70747;-65
2022/12/06 06:51:26;;;;;;;37.72;19.95;;;;;;;;;;4384695;32;68397;-64
2022/12/06 06:54:14;;;;;;;43.92;19.65;;;;;;;;;;4383205;32;67774;-64
2022/12/06 06:57:01;;;;;;;40.72;20.23;;;;;;;;;;4384359;32;70852;-64
2022/12/06 06:59:48;;;;;;;46.37;20.85;;;;;;;;;;4372025;32;67024;-64
2022/12/06 07:02:38;;;;;;;104.18;56.45;;;;;;;;;;4383119;32;66601;-62
2022/12/06 07:05:25;;;;;;;86.72;41.72;;;;;;;;;;4384887;32;59336;-64
2022/12/06 07:08:12;;;;;;;61.28;33.28;;;;;;;;;;4382904;32;70718;-65
2022/12/06 07:10:59;;;;;;;58.97;30.12;;;;;;;;;;4371674;32;66511;-65
2022/12/06 07:13:45;;;;;;;;;;;;;;;;;;4372709;32;66586;-66
2022/12/06 07:16:32;;;;;;;59.67;32.42;;;;;;;;;;4372097;32;59242;-65
2022/12/06 07:19:19;;;;;;;46.45;24.77;;;;;;;;;;4382830;32;70325;-66
2022/12/06 07:22:05;;;;;;;59.60;33.25;;;;;;;;;;4382815;32;69642;-66
2022/12/06 07:24:52;;;;;;;52.35;28.87;;;;;;;;;;4372226;32;67705;-65
2022/12/06 07:27:39;;;;;;;61.17;31.35;;;;;;;;;;4372090;32;71713;-66
2022/12/06 07:30:29;;;;;;;61.60;30.85;;;;;;;;;;4382143;32;66607;-66
2022/12/06 07:33:15;;;;;;;61.78;27.70;;;;;;;;;;4371927;32;67888;-66
2022/12/06 07:36:02;;;;;;;45.55;23.10;;;;;;;;;;4382924;32;67400;-66
2022/12/06 07:38:52;;;;;;;53.33;23.17;;;;;;;;;;4371456;32;72092;-66
2022/12/06 07:45:03;;;;;;;48.53;23.17;;;;;;;;;;4383765;32;67565;-66
2022/12/06 07:47:50;;;;;;;40.00;21.35;;;;;;;;;;4362158;32;61497;-66
2022/12/06 07:50:37;;;;;;;39.67;22.92;;;;;;;;;;4381353;32;71280;-65
2022/12/06 07:53:24;;;;;;;37.28;23.52;;;;;;;;;;4380176;32;69808;-67
2022/12/06 07:56:11;;;;;;;47.45;24.80;;;;;;;;;;4382100;32;66752;-67
2022/12/06 07:58:57;;;;;;;;;;;;;;;;;;4371789;32;59505;-66
2022/12/06 08:01:44;;;;;;;30.70;16.08;;;;;;;;;;4382434;32;70337;-67
2022/12/06 08:04:31;;;;;;;39.00;16.98;;;;;;;;;;4382277;32;68425;-66
2022/12/06 08:07:18;;;;;;;34.70;18.87;;;;;;;;;;4371079;32;67388;-66
2022/12/06 08:10:05;;;;;;;;;;;;;;;;;;4371869;32;71820;-66
2022/12/06 08:12:52;;;;;;;25.00;13.70;;;;;;;;;;4382664;32;66399;-67
2022/12/06 08:15:39;;;;;;;39.30;20.48;;;;;;;;;;4371222;32;68444;-66
2022/12/06 08:18:26;;;;;;;47.05;22.37;;;;;;;;;;4382154;32;60196;-66
2022/12/06 08:21:13;;;;;;;47.22;25.23;;;;;;;;;;4382347;32;69694;-66
2022/12/06 08:23:59;;;;;;;37.45;20.58;;;;;;;;;;4371653;32;66125;-65
2022/12/06 08:26:47;;;;;;;34.80;16.98;;;;;;;;;;4371668;32;67617;-65
2022/12/06 08:29:33;;;;;;;35.13;19.05;;;;;;;;;;4370959;32;60598;-66
2022/12/06 08:32:20;;;;;;;32.13;17.70;;;;;;;;;;4360329;32;73098;-66
2022/12/06 08:47:08;;;;;;;29.05;15.75;;;;;;;;;;4381280;32;66055;-66
2022/12/06 08:49:57;;;;;;;40.67;23.10;;;;;;;;;;4381904;32;68058;-66
2022/12/06 08:52:43;;;;;;;40.47;21.08;;;;;;;;;;4359693;32;71253;-66
2022/12/06 08:55:30;;;;;;;35.60;20.25;;;;;;;;;;4371452;32;65900;-65
2022/12/06 08:58:18;;;;;;;36.53;19.33;;;;;;;;;;4382314;32;67666;-66
2022/12/06 09:01:17;;;;;;;36.08;18.05;;;;;;;;;;4382019;32;60217;-66
2022/12/06 09:04:05;;;;;;;27.92;15.07;;;;;;;;;;4381597;32;70612;-66
2022/12/06 09:06:52;;;;;;;25.75;13.55;;;;;;;;;;4381701;32;69281;-65
2022/12/06 09:09:39;;;;;;;22.85;12.43;;;;;;;;;;4370982;32;67616;-65
2022/12/06 09:12:26;;;;;;;29.37;14.02;;;;;;;;;;4382023;32;71661;-65
2022/12/06 09:15:13;;;;;;;24.73;13.85;;;;;;;;;;4381418;32;70956;-66
2022/12/06 09:17:59;;;;;;;29.45;15.13;;;;;;;;;;4381451;32;69613;-66
2022/12/06 09:20:46;;;;;;;32.78;18.52;;;;;;;;;;4382987;32;67705;-66
2022/12/06 09:23:34;;;;;;;37.50;18.73;;;;;;;;;;4359743;32;72505;-65
2022/12/06 09:26:21;;;;;;;30.05;18.87;;;;;;;;;;4369922;32;66696;-66
2022/12/06 09:29:08;;;;;;;30.70;14.32;;;;;;;;;;4370386;32;66831;-66
2022/12/06 09:31:54;;;;;;;38.90;20.23;;;;;;;;;;4360720;32;60518;-65
2022/12/06 09:34:41;;;;;;;44.60;23.25;;;;;;;;;;4370287;32;71255;-66
2022/12/06 09:37:28;;;;;;;35.40;20.20;;;;;;;;;;4381631;32;68310;-67
2022/12/06 09:40:30;;;;;;;39.00;21.48;;;;;;;;;;4381587;32;67473;-66
2022/12/06 09:43:33;;;;;;;39.72;21.10;;;;;;;;;;4370401;32;60086;-66
2022/12/06 09:46:28;;;;;;;40.95;20.77;;;;;;;;;;4369906;32;71066;-66
2022/12/06 09:49:31;;;;;;;41.50;22.73;;;;;;;;;;4381194;32;69330;-66
2022/12/06 09:52:26;;;;;;;40.25;19.27;;;;;;;;;;4369838;32;68182;-66
2022/12/06 09:55:23;;;;;;;40.75;20.70;;;;;;;;;;4380786;32;72813;-66
2022/12/06 09:58:23;;;;;;;37.80;20.80;;;;;;;;;;4370020;32;65826;-66
2022/12/06 10:01:18;;;;;;;36.42;21.62;;;;;;;;;;4370263;32;68490;-66
2022/12/06 10:04:05;;;;;;;41.45;23.00;;;;;;;;;;4382597;32;60262;-66
2022/12/06 10:07:07;;;;;;;47.20;26.48;;;;;;;;;;4382465;32;70802;-66
2022/12/06 10:10:15;;;;;;;47.17;26.95;;;;;;;;;;4370498;32;66366;-65
2022/12/06 10:13:20;;;;;;;40.40;21.92;;;;;;;;;;4382324;32;67871;-66
2022/12/06 10:16:20;;;;;;;45.38;21.40;;;;;;;;;;4383943;32;59817;-66
2022/12/06 10:19:33;;;;;;;39.67;20.45;;;;;;;;;;4383194;32;71569;-66
2022/12/06 10:22:31;;;;;;;39.85;20.48;;;;;;;;;;4372307;32;69745;-66
2022/12/06 10:25:25;;;;;;;34.35;19.27;;;;;;;;;;4382974;32;67186;-66
2022/12/06 10:28:33;;;;;;;40.03;20.00;;;;;;;;;;4383464;32;71779;-66
2022/12/06 10:32:00;;;;;;;39.55;20.25;;;;;;;;;;4382848;32;70246;-67
2022/12/06 10:34:54;;;;;;;38.80;19.87;;;;;;;;;;4372508;32;68288;-67
2022/12/06 10:38:05;;;;;;;38.30;19.83;;;;;;;;;;4372076;32;67202;-67
2022/12/06 10:41:07;;;;;;;43.70;21.45;;;;;;;;;;4383014;32;71711;-66
2022/12/06 10:44:21;;;;;;;36.40;20.23;;;;;;;;;;4382389;32;66721;-66
2022/12/06 10:47:15;;;;;;;35.50;20.40;;;;;;;;;;4384664;32;67016;-66
2022/12/06 10:50:28;;;;;;;40.97;19.87;;;;;;;;;;4372157;32;61300;-66
2022/12/06 10:53:17;;;;;;;36.50;19.27;;;;;;;;;;4384899;32;71074;-66
2022/12/06 10:56:21;;;;;;;36.50;18.83;;;;;;;;;;4352412;32;70627;-66
2022/12/06 10:59:50;;;;;;;34.95;19.50;;;;;;;;;;4372429;32;68063;-66
2022/12/06 11:03:11;;;;;;;41.22;19.15;;;;;;;;;;4373012;32;60114;-66
2022/12/06 11:06:16;;;;;;;26.37;15.32;;;;;;;;;;4382990;32;71240;-67
2022/12/06 11:09:17;;;;;;;27.13;13.25;;;;;;;;;;4383237;32;68299;-66
2022/12/06 11:12:26;;;;;;;22.62;13.60;;;;;;;;;;4372587;32;66465;-66
2022/12/06 11:15:28;;;;;;;25.70;13.43;;;;;;;;;;4383985;32;71876;-66
2022/12/06 11:18:16;;;;;;;25.05;12.93;;;;;;;;;;4372327;32;65397;-66
2022/12/06 11:21:32;;;;;;;39.00;16.98;;;;;;;;;;4371837;32;68914;-66
2022/12/06 11:24:24;;;;;;;31.00;17.02;;;;;;;;;;4361874;32;60624;-66
2022/12/06 11:27:21;;;;;;;33.05;17.08;;;;;;;;;;4382321;32;72432;-65
2022/12/06 11:30:17;;;;;;;31.10;16.42;;;;;;;;;;4371284;32;65724;-66
2022/12/06 11:33:04;;;;;;;32.13;17.12;;;;;;;;;;4360890;32;68475;-66
2022/12/06 11:35:51;;;;;;;27.62;16.05;;;;;;;;;;4384336;32;60121;-67
2022/12/06 11:38:39;;;;;;;28.77;16.45;;;;;;;;;;4372185;32;70732;-66
2022/12/06 11:41:34;;;;;;;27.27;15.50;;;;;;;;;;4382760;32;69453;-66
2022/12/06 11:44:24;;;;;;;26.40;15.98;;;;;;;;;;4382379;32;66740;-66
2022/12/06 11:47:15;;;;;;;31.95;17.00;;;;;;;;;;4371808;32;71886;-66
2022/12/06 11:50:02;;;;;;;27.80;14.25;;;;;;;;;;4372216;32;66027;-67
2022/12/06 11:52:48;;;;;;;27.73;14.75;;;;;;;;;;4382517;32;68006;-67
2022/12/06 11:56:14;;;;;;;26.07;12.80;;;;;;;;;;4382802;32;66671;-65
2022/12/06 11:59:27;;;;;;;23.75;13.95;;;;;;;;;;4382350;32;71897;-66
2022/12/06 12:02:30;;;;;;;28.70;15.05;;;;;;;;;;4361864;32;66384;-66
2022/12/06 12:05:43;;;;;;;30.67;17.95;;;;;;;;;;4371242;32;65303;-65
2022/12/06 12:08:29;;;;;;;28.52;17.30;;;;;;;;;;4382313;32;60445;-65
2022/12/06 12:11:21;;;;;;;26.85;16.08;;;;;;;;;;4366135;32;71122;-67
2022/12/06 12:14:16;;;;;;;25.58;14.38;;;;;;;;;;4365847;32;69010;-67
2022/12/06 12:17:04;;;;;;;29.77;14.70;;;;;;;;;;4376358;32;67051;-66
2022/12/06 12:20:04;;;;;;;34.63;17.85;;;;;;;;;;4377081;32;60145;-66
2022/12/06 12:23:41;;;;;;;34.83;16.77;;;;;;;;;;4382722;32;70868;-66
2022/12/06 12:26:39;;;;;;;32.17;18.35;;;;;;;;;;4382458;32;69348;-66
2022/12/06 12:29:26;;;;;;;33.85;17.75;;;;;;;;;;4382163;32;67633;-66
2022/12/06 12:32:18;;;;;;;32.03;16.73;;;;;;;;;;4382228;32;71508;-66
2022/12/06 12:35:20;;;;;;;34.42;17.02;;;;;;;;;;4382320;32;65959;-67
2022/12/06 12:38:10;;;;;;;24.48;14.23;;;;;;;;;;4381627;32;67927;-67
2022/12/06 12:41:00;;;;;;;36.90;18.40;;;;;;;;;;4381797;32;61101;-67
2022/12/06 12:43:56;;;;;;;36.58;20.25;;;;;;;;;;4371387;32;70762;-65
2022/12/06 12:46:55;;;;;;;32.72;19.05;;;;;;;;;;4371362;32;65832;-66
2022/12/06 12:49:41;;;;;;;31.45;16.23;;;;;;;;;;4371436;32;66944;-66
2022/12/06 12:52:29;;;;;;;27.87;15.55;;;;;;;;;;4382446;32;59449;-66
2022/12/06 12:55:24;;;;;;;35.17;14.38;;;;;;;;;;4381852;32;71073;-65
2022/12/06 12:58:11;;;;;;;27.83;13.52;;;;;;;;;;4380922;32;68987;-65
2022/12/06 13:01:03;;;;;;;25.92;13.75;;;;;;;;;;4383057;32;68064;-66
2022/12/06 13:03:56;;;;;;;24.73;12.60;;;;;;;;;;4370967;32;71557;-66
2022/12/06 13:07:21;;;;;;;21.02;11.75;;;;;;;;;;4383336;32;64825;-66
2022/12/06 13:10:24;;;;;;;21.25;11.95;;;;;;;;;;4371201;32;69156;-67
2022/12/06 13:13:21;;;;;;;23.10;11.93;;;;;;;;;;4381192;32;67383;-66
2022/12/06 13:16:13;;;;;;;33.88;15.50;;;;;;;;;;4360291;32;70755;-66
2022/12/06 13:19:00;;;;;;;20.70;11.98;;;;;;;;;;4381606;32;66229;-66
2022/12/06 13:21:48;;;;;;;28.30;13.77;;;;;;;;;;4371061;32;68190;-66
2022/12/06 13:24:36;;;;;;;26.27;12.70;;;;;;;;;;4360662;32;59231;-66
2022/12/06 13:27:23;;;;;;;30.10;15.80;;;;;;;;;;4380910;32;71212;-66
2022/12/06 13:30:16;;;;;;;32.30;15.32;;;;;;;;;;4382596;32;69360;-66
2022/12/06 13:33:12;;;;;;;29.40;14.80;;;;;;;;;;4384869;32;66904;-66
2022/12/06 13:36:05;;;;;;;33.08;15.60;;;;;;;;;;4382907;32;59257;-67
2022/12/06 13:38:54;;;;;;;29.52;16.10;;;;;;;;;;4371882;32;69725;-66
2022/12/06 13:44:58;;;;;;;32.35;16.58;;;;;;;;;;4381112;32;68684;-66
2022/12/06 13:47:49;;;;;;;35.28;16.30;;;;;;;;;;4370565;32;72096;-66
2022/12/06 13:50:35;;;;;;;29.95;14.65;;;;;;;;;;4370875;32;64809;-66
2022/12/06 13:53:24;;;;;;;29.10;14.93;;;;;;;;;;4383630;32;68685;-67
2022/12/06 13:56:29;;;;;;;29.45;15.80;;;;;;;;;;4373100;32;60048;-66
2022/12/06 13:59:15;;;;;;;29.17;15.43;;;;;;;;;;4383764;32;69475;-66
2022/12/06 14:02:14;;;;;;;31.45;14.35;;;;;;;;;;4383553;32;66657;-67
2022/12/06 14:05:00;;;;;;;28.05;14.07;;;;;;;;;;4373182;32;68321;-66
2022/12/06 14:07:47;;;;;;;26.35;14.07;;;;;;;;;;4372905;32;59953;-66
2022/12/06 14:10:33;;;;;;;26.40;14.18;;;;;;;;;;4383354;32;70268;-66
2022/12/06 14:13:21;;;;;;;25.10;14.35;;;;;;;;;;4372740;32;70461;-66
2022/12/06 14:16:09;;;;;;;29.87;14.15;;;;;;;;;;4385259;32;67469;-66
2022/12/06 14:18:55;;;;;;;27.00;14.00;;;;;;;;;;4373280;32;71751;-66
2022/12/06 14:22:01;;;;;;;24.33;14.55;;;;;;;;;;4383849;32;65738;-66
2022/12/06 14:25:05;;;;;;;27.17;14.80;;;;;;;;;;4383598;32;67868;-67
2022/12/06 14:28:05;;;;;;;27.08;14.43;;;;;;;;;;4373012;32;67654;-67
2022/12/06 14:31:04;;;;;;;29.87;14.43;;;;;;;;;;4383257;32;70559;-66
2022/12/06 14:33:52;;;;;;;30.65;14.25;;;;;;;;;;4373039;32;66083;-66
2022/12/06 14:36:40;;;;;;;25.50;14.07;;;;;;;;;;4383723;32;68250;-66
2022/12/06 14:39:29;;;;;;;29.05;15.05;;;;;;;;;;4384929;32;60535;-66
2022/12/06 14:45:23;;;;;;;26.60;14.07;;;;;;;;;;4374083;32;69581;-66
2022/12/06 14:48:10;;;;;;;28.77;16.00;;;;;;;;;;4373136;32;67902;-66
2022/12/06 14:50:57;;;;;;;24.12;14.87;;;;;;;;;;4373010;32;71253;-66
2022/12/06 14:53:43;;;;;;;26.95;14.35;;;;;;;;;;4382711;32;71590;-67
2022/12/06 14:56:31;;;;;;;24.17;14.10;;;;;;;;;;4372114;32;68259;-65
2022/12/06 14:59:18;;;;;;;28.35;15.60;;;;;;;;;;4383284;32;67837;-68
2022/12/06 15:02:24;;;;;;;25.15;14.60;;;;;;;;;;4383886;32;71734;-66
2022/12/06 15:05:30;;;;;;;29.42;15.30;;;;;;;;;;4372643;32;65812;-67
2022/12/06 15:08:26;;;;;;;27.23;16.05;;;;;;;;;;4371981;32;65710;-67
2022/12/06 15:12:53;;;;;;;26.33;16.35;;;;;;;;;;4383027;32;61053;-66
2022/12/06 15:14:21;;;;;;;31.25;17.48;;;;;;;;;;4384180;32;70478;-66
2022/12/06 15:17:10;;;;;;;30.35;16.77;;;;;;;;;;4383197;32;68650;-66
2022/12/06 15:19:57;;;;;;;36.95;18.90;;;;;;;;;;4383070;32;66925;-66
2022/12/06 15:22:45;;;;;;;32.22;17.45;;;;;;;;;;4384568;32;59538;-66
2022/12/06 15:25:32;;;;;;;32.10;17.27;;;;;;;;;;4382457;32;70257;-66
2022/12/06 15:28:19;;;;;;;33.03;17.40;;;;;;;;;;4384026;32;69359;-66
2022/12/06 15:31:06;;;;;;;;;;;;;;;;;;4383524;32;66923;-66
2022/12/06 15:33:53;;;;;;;36.60;18.13;;;;;;;;;;4383031;32;71927;-66
2022/12/06 15:36:40;;;;;;;35.05;17.27;;;;;;;;;;4382983;32;65045;-66
2022/12/06 15:39:27;;;;;;;28.15;15.57;;;;;;;;;;4372244;32;67821;-67
2022/12/06 15:42:21;;;;;;;35.85;16.67;;;;;;;;;;4382780;32;66792;-65
2022/12/06 15:45:13;;;;;;;35.15;17.58;;;;;;;;;;4382515;32;71699;-66
2022/12/06 15:48:01;;;;;;;31.23;17.12;;;;;;;;;;4382623;32;66298;-66
2022/12/06 15:50:47;;;;;;;32.80;18.58;;;;;;;;;;4382088;32;67411;-66
2022/12/06 15:53:34;;;;;;;35.45;19.08;;;;;;;;;;4382340;32;60848;-66
2022/12/06 15:56:23;;;;;;;30.42;17.45;;;;;;;;;;4371319;32;71385;-66
2022/12/06 15:59:10;;;;;;;34.20;16.65;;;;;;;;;;4382750;32;68000;-66
2022/12/06 16:01:57;;;;;;;31.08;18.30;;;;;;;;;;4383861;32;66716;-66
2022/12/06 16:04:47;;;;;;;41.85;18.40;;;;;;;;;;4382680;32;71806;-66
2022/12/06 16:07:33;;;;;;;32.05;17.23;;;;;;;;;;4382498;32;70479;-67
2022/12/06 16:10:20;;;;;;;;;;;;;;;;;;4384198;32;69486;-67
2022/12/06 16:13:21;;;;;;;32.92;17.92;;;;;;;;;;4359957;32;68502;-67
2022/12/06 16:16:08;;;;;;;41.35;18.23;;;;;;;;;;4383428;32;71868;-66
2022/12/06 16:18:54;;;;;;;;;;;;;;;;;;4372103;32;64958;-66
2022/12/06 16:21:53;;;;;;;30.52;17.90;;;;;;;;;;4381735;32;68807;-66
2022/12/06 16:24:40;;;;;;;31.40;19.05;;;;;;;;;;4371805;32;60067;-66
2022/12/06 16:27:27;;;;;;;32.63;18.45;;;;;;;;;;4382241;32;69294;-66
2022/12/06 16:30:14;;;;;;;39.72;18.65;;;;;;;;;;4381402;32;70064;-66
2022/12/06 16:33:01;;;;;;;42.20;19.05;;;;;;;;;;4371568;32;66976;-66
2022/12/06 16:35:48;;;;;;;38.80;19.33;;;;;;;;;;4381823;32;59268;-65
2022/12/06 16:38:34;;;;;;;34.42;18.77;;;;;;;;;;4382034;32;69727;-66
2022/12/06 16:41:27;;;;;;;36.45;18.35;;;;;;;;;;4381559;32;66619;-67
2022/12/06 16:44:14;;;;;;;36.80;19.70;;;;;;;;;;4381224;32;67190;-66
2022/12/06 16:47:00;;;;;;;;;;;;;;;;;;4382405;32;71969;-67
2022/12/06 16:49:47;;;;;;;32.13;17.75;;;;;;;;;;4371195;32;66913;-66
2022/12/06 16:52:34;;;;;;;47.45;18.85;;;;;;;;;;4381910;32;67930;-66
2022/12/06 16:55:21;;;;;;;37.13;18.70;;;;;;;;;;4381338;32;60368;-66
2022/12/06 16:58:07;;;;;;;37.13;18.85;;;;;;;;;;4371278;32;71321;-66
2022/12/06 17:00:55;;;;;;;27.58;17.42;;;;;;;;;;4381106;32;66871;-66
2022/12/06 17:03:48;;;;;;;34.58;17.52;;;;;;;;;;4383507;32;67784;-66
2022/12/06 17:06:37;;;;;;;33.88;17.80;;;;;;;;;;4381712;32;60044;-67
2022/12/06 17:09:24;;;;;;;24.92;15.23;;;;;;;;;;4381736;32;69999;-66
2022/12/06 17:12:14;;;;;;;26.60;14.93;;;;;;;;;;4381218;32;69360;-66
2022/12/06 17:15:00;;;;;;;26.50;15.05;;;;;;;;;;4381591;32;66749;-66
2022/12/06 17:17:48;;;;;;;24.83;14.43;;;;;;;;;;4381066;32;72123;-66
2022/12/06 17:20:35;;;;;;;22.87;13.60;;;;;;;;;;4371499;32;65188;-66
2022/12/06 17:23:22;;;;;;;25.02;14.32;;;;;;;;;;4381793;32;69267;-66
2022/12/06 17:26:09;;;;;;;21.35;12.45;;;;;;;;;;4370158;32;68072;-66